Time;durP1;ratioP1;P1;durP2;ratioP2;P2;SDS_P1;SDS_P2;PMS_P1;PMS_P2;Temp;Humidity;BMP_temperature;BMP_pressure;BME280_temperature;BME280_humidity;BME280_pressure;Samples;Min_cycle;Max_cycle;Signal;HPM_P1;HPM_P2
2022/05/25 00:01:46;;;;;;;3.47;1.22;;;17.10;99.90;;;;;;1938817;73;21059;-86
2022/05/25 00:04:42;;;;;;;2.62;1.20;;;17.10;99.90;;;;;;1917599;73;21113;-85
2022/05/25 00:07:36;;;;;;;5.00;1.35;;;17.00;99.90;;;;;;1930048;73;21179;-85
2022/05/25 00:10:29;;;;;;;1.60;1.50;;;17.10;99.90;;;;;;1912757;73;21567;-85
2022/05/25 00:13:24;;;;;;;3.33;1.72;;;17.00;99.90;;;;;;1926663;74;21059;-85
2022/05/25 00:16:20;;;;;;;3.17;2.45;;;17.00;99.90;;;;;;1939530;73;21582;-85
2022/05/25 00:22:27;;;;;;;4.10;2.35;;;17.00;99.90;;;;;;1904403;75;21671;-85
2022/05/25 00:25:22;;;;;;;3.40;1.85;;;16.90;99.90;;;;;;1916679;75;21048;-86
2022/05/25 00:28:16;;;;;;;3.98;1.80;;;16.80;99.90;;;;;;1916743;75;21119;-86
2022/05/25 00:31:11;;;;;;;3.08;1.60;;;16.80;99.90;;;;;;1938409;73;21055;-85
2022/05/25 00:34:05;;;;;;;5.03;1.10;;;16.70;99.90;;;;;;1905088;75;21096;-84
2022/05/25 00:36:57;;;;;;;4.87;1.00;;;16.70;99.90;;;;;;1892195;75;21168;-86
2022/05/25 00:39:52;;;;;;;2.17;1.20;;;16.60;99.90;;;;;;1914590;74;21110;-86
2022/05/25 00:42:47;;;;;;;2.20;1.10;;;16.60;99.90;;;;;;1933283;74;21624;-87
2022/05/25 00:45:42;;;;;;;1.60;1.07;;;16.40;99.90;;;;;;1904754;75;21059;-87
2022/05/25 00:48:38;;;;;;;2.05;1.00;;;16.40;99.90;;;;;;1904272;74;21111;-86
2022/05/25 00:51:36;;;;;;;1.80;1.00;;;16.30;99.90;;;;;;1930307;73;21055;-86
2022/05/25 00:54:33;;;;;;;8.10;1.15;;;16.40;99.90;;;;;;1905304;74;21544;-86
2022/05/25 00:57:29;;;;;;;4.35;1.10;;;16.30;99.90;;;;;;1904658;74;21176;-85
2022/05/25 01:00:24;;;;;;;1.57;0.95;;;16.30;99.90;;;;;;1911014;73;21570;-86
2022/05/25 01:03:19;;;;;;;1.67;0.90;;;16.30;99.90;;;;;;1916903;75;21201;-86
2022/05/25 01:06:17;;;;;;;1.20;1.10;;;16.20;99.90;;;;;;1917027;73;21129;-86
2022/05/25 01:09:12;;;;;;;;;;;16.20;99.90;;;;;;1919748;75;21059;-85
2022/05/25 01:12:12;;;;;;;1.77;1.17;;;16.20;99.90;;;;;;1939097;73;20150;-86
2022/05/25 01:17:57;;;;;;;2.35;1.50;;;16.20;99.90;;;;;;1938291;72;28007;-85
2022/05/25 01:34:30;;;;;;;2.60;1.00;;;16.50;99.90;;;;;;1940807;72;22641;-85
2022/05/25 01:37:44;;;;;;;2.20;1.10;;;16.40;99.90;;;;;;1894918;75;21117;-85
2022/05/25 01:40:58;;;;;;;1.90;0.80;;;16.40;99.90;;;;;;1894538;75;21063;-85
2022/05/25 01:43:54;;;;;;;1.62;0.60;;;16.30;99.90;;;;;;1894447;75;21052;-86
2022/05/25 01:47:09;;;;;;;1.17;0.82;;;16.30;99.90;;;;;;1894507;75;21047;-85
2022/05/25 01:50:03;;;;;;;2.20;0.80;;;16.30;99.90;;;;;;1873256;76;21063;-86
2022/05/25 01:55:39;;;;;;;4.20;0.50;;;16.30;99.90;;;;;;1947772;72;22240;-85
2022/05/25 01:58:52;;;;;;;0.80;0.60;;;16.40;99.90;;;;;;1912851;75;21612;-85
2022/05/25 02:05:17;;;;;;;1.60;0.50;;;16.40;99.90;;;;;;1912675;75;21117;-85
2022/05/25 02:08:33;;;;;;;1.30;0.30;;;16.30;99.90;;;;;;1906750;75;21067;-85
2022/05/25 02:11:28;;;;;;;1.45;0.35;;;16.40;99.90;;;;;;1906675;75;21507;-85
2022/05/25 02:14:27;;;;;;;1.05;0.70;;;16.50;99.90;;;;;;1885027;76;21120;-86
2022/05/25 02:17:23;;;;;;;1.85;0.80;;;16.50;99.90;;;;;;1884760;75;21613;-86
2022/05/25 02:20:18;;;;;;;1.82;0.90;;;16.40;99.90;;;;;;1893522;75;21062;-85
2022/05/25 02:23:12;;;;;;;1.72;0.60;;;16.40;99.90;;;;;;1895861;75;21095;-86
2022/05/25 02:26:07;;;;;;;1.95;0.40;;;16.40;99.90;;;;;;1895684;75;21162;-86
2022/05/25 02:29:02;;;;;;;1.95;0.42;;;16.40;99.90;;;;;;1881420;76;21114;-85
2022/05/25 02:31:57;;;;;;;1.67;0.57;;;16.30;99.90;;;;;;1897711;75;21066;-85
2022/05/25 02:34:51;;;;;;;1.47;0.40;;;16.20;99.90;;;;;;1895634;75;21157;-85
2022/05/25 02:37:43;;;;;;;1.10;0.40;;;16.10;99.90;;;;;;1895798;75;21531;-85
2022/05/25 02:40:37;;;;;;;2.42;0.45;;;16.10;99.90;;;;;;1897037;75;21059;-85
2022/05/25 02:43:28;;;;;;;2.60;0.60;;;16.20;99.90;;;;;;1912755;75;21098;-85
2022/05/25 02:46:20;;;;;;;2.45;0.40;;;16.20;99.90;;;;;;1895486;75;21087;-85
2022/05/25 02:49:14;;;;;;;1.90;0.62;;;16.20;99.90;;;;;;1895884;75;21150;-85
2022/05/25 02:52:08;;;;;;;2.10;0.50;;;16.10;99.90;;;;;;1894660;75;21054;-86
2022/05/25 02:55:00;;;;;;;1.50;0.50;;;16.20;99.90;;;;;;1910380;74;21118;-85
2022/05/25 02:57:51;;;;;;;1.95;0.40;;;16.20;99.90;;;;;;1920113;74;21208;-85
2022/05/25 03:00:43;;;;;;;1.10;0.37;;;16.10;99.90;;;;;;1908729;74;21072;-86
2022/05/25 03:03:36;;;;;;;0.85;0.33;;;16.10;99.90;;;;;;1911432;74;21544;-85
2022/05/25 03:06:28;;;;;;;1.40;0.40;;;16.10;99.90;;;;;;1913001;74;21066;-85
2022/05/25 03:09:20;;;;;;;0.65;0.40;;;16.00;99.90;;;;;;1915181;74;21102;-86
2022/05/25 03:12:13;;;;;;;1.77;0.40;;;15.90;99.90;;;;;;1922448;74;21155;-86
2022/05/25 03:15:06;;;;;;;1.55;0.23;;;15.90;99.90;;;;;;1926803;74;21118;-85
2022/05/25 03:17:57;;;;;;;1.75;0.37;;;15.90;99.90;;;;;;1911275;74;21054;-85
2022/05/25 03:20:49;;;;;;;2.60;0.33;;;15.90;99.90;;;;;;1916763;74;21075;-85
2022/05/25 03:23:41;;;;;;;1.20;0.30;;;16.00;99.90;;;;;;1911538;74;21130;-85
2022/05/25 03:26:33;;;;;;;1.20;0.40;;;15.90;99.90;;;;;;1929389;74;21074;-92
2022/05/25 03:29:25;;;;;;;0.55;0.30;;;15.70;99.90;;;;;;1901801;75;21072;-93
2022/05/25 03:32:21;;;;;;;0.88;0.30;;;15.90;99.90;;;;;;1900877;75;21063;-92
2022/05/25 03:35:15;;;;;;;1.00;0.37;;;15.80;99.90;;;;;;1915418;74;21089;-92
2022/05/25 03:38:10;;;;;;;0.50;0.40;;;15.80;99.90;;;;;;1925112;74;21060;-91
2022/05/25 03:41:03;;;;;;;2.80;0.25;;;15.70;99.90;;;;;;1901105;74;21075;-92
2022/05/25 03:43:54;;;;;;;0.98;0.50;;;15.70;99.90;;;;;;1901118;74;21128;-91
2022/05/25 03:46:46;;;;;;;2.72;0.40;;;15.70;99.90;;;;;;1917671;74;21131;-91
2022/05/25 03:49:39;;;;;;;0.45;0.30;;;15.60;99.90;;;;;;1935460;74;21047;-90
2022/05/25 03:52:30;;;;;;;0.82;0.35;;;15.60;99.90;;;;;;1906177;74;21216;-91
2022/05/25 03:55:22;;;;;;;1.42;0.47;;;15.60;99.90;;;;;;1897651;75;21079;-92
2022/05/25 03:58:14;;;;;;;0.68;0.30;;;15.60;99.90;;;;;;1884750;76;21558;-91
2022/05/25 04:01:07;;;;;;;1.47;0.25;;;15.60;99.90;;;;;;1898155;75;21047;-91
2022/05/25 04:03:58;;;;;;;0.80;0.30;;;15.60;99.90;;;;;;1918021;75;21200;-92
2022/05/25 04:06:50;;;;;;;2.58;0.30;;;15.60;99.90;;;;;;1917772;75;21127;-91
2022/05/25 04:09:42;;;;;;;1.62;0.23;;;15.60;99.90;;;;;;1917952;75;21110;-90
2022/05/25 04:12:34;;;;;;;0.98;0.40;;;15.50;99.90;;;;;;1898457;75;21183;-90
2022/05/25 04:15:27;;;;;;;1.00;0.40;;;15.50;99.90;;;;;;1918080;75;21051;-91
2022/05/25 04:18:19;;;;;;;1.40;0.50;;;15.50;99.90;;;;;;1917666;75;21095;-92
2022/05/25 04:21:11;;;;;;;0.50;0.30;;;15.50;99.90;;;;;;1917738;75;21622;-91
2022/05/25 04:24:04;;;;;;;1.90;0.40;;;15.50;99.90;;;;;;1917641;75;21152;-92
2022/05/25 04:26:59;;;;;;;1.70;0.40;;;15.40;99.90;;;;;;1905422;75;21191;-93
2022/05/25 04:29:51;;;;;;;1.45;0.42;;;15.40;99.90;;;;;;1914909;75;21055;-92
2022/05/25 04:32:45;;;;;;;0.85;0.55;;;15.40;99.90;;;;;;1892448;75;21070;-91
2022/05/25 04:35:36;;;;;;;2.02;0.40;;;15.40;99.90;;;;;;1904576;75;21208;-91
2022/05/25 04:38:28;;;;;;;1.72;0.57;;;15.40;99.90;;;;;;1917968;75;21244;-92
2022/05/25 04:41:20;;;;;;;0.65;0.30;;;15.30;99.90;;;;;;1892672;75;21046;-92
2022/05/25 04:44:14;;;;;;;1.42;0.37;;;15.30;99.90;;;;;;1916681;75;21098;-92
2022/05/25 04:47:09;;;;;;;2.30;0.50;;;15.30;99.90;;;;;;1904732;75;21127;-93
2022/05/25 04:50:06;;;;;;;1.50;0.40;;;15.30;99.90;;;;;;1884943;76;21082;-92
2022/05/25 04:52:59;;;;;;;2.20;0.47;;;15.30;99.90;;;;;;1873029;77;21094;-92
2022/05/25 04:59:03;;;;;;;2.85;0.40;;;15.30;99.90;;;;;;1928144;74;21163;-92
2022/05/25 05:01:56;;;;;;;1.15;0.30;;;15.30;99.90;;;;;;1902021;74;21134;-92
2022/05/25 05:04:49;;;;;;;1.67;0.40;;;15.40;99.90;;;;;;1894687;76;21124;-92
2022/05/25 05:07:41;;;;;;;0.80;0.37;;;15.40;99.90;;;;;;1894229;76;21204;-92
2022/05/25 05:10:34;;;;;;;1.27;0.37;;;15.50;99.90;;;;;;1904291;74;21055;-95
2022/05/25 05:13:26;;;;;;;0.57;0.30;;;15.40;99.90;;;;;;1927083;74;21078;-94
2022/05/25 05:16:19;;;;;;;3.52;0.40;;;15.40;99.90;;;;;;1904990;74;21089;-93
2022/05/25 05:19:14;;;;;;;1.45;0.50;;;15.40;99.90;;;;;;1893991;76;21138;-94
2022/05/25 05:22:09;;;;;;;0.80;0.45;;;15.30;99.90;;;;;;1894565;76;21219;-93
2022/05/25 05:25:01;;;;;;;0.50;0.30;;;15.30;99.90;;;;;;1894399;76;21065;-93
2022/05/25 05:27:54;;;;;;;1.82;0.30;;;15.30;99.90;;;;;;1894621;76;21098;-91
2022/05/25 05:30:49;;;;;;;0.93;0.30;;;15.40;99.90;;;;;;1894560;76;21112;-93
2022/05/25 05:33:43;;;;;;;1.65;0.53;;;15.30;99.90;;;;;;1894378;76;21062;-94
2022/05/25 05:36:50;;;;;;;1.65;0.60;;;15.40;99.90;;;;;;1904452;74;21042;-96
2022/05/25 05:40:05;;;;;;;1.87;0.33;;;15.50;99.90;;;;;;1928600;74;21433;-96
2022/05/25 05:42:59;;;;;;;0.85;0.20;;;15.50;99.90;;;;;;1928872;74;21117;-96
2022/05/25 05:46:00;;;;;;;1.35;0.50;;;15.50;99.90;;;;;;1928654;74;21074;-96
2022/05/25 05:48:55;;;;;;;2.30;0.65;;;15.50;99.90;;;;;;1928800;74;21098;-95
2022/05/25 05:51:51;;;;;;;1.85;0.30;;;15.50;99.90;;;;;;1928950;74;21059;-96
2022/05/25 05:54:46;;;;;;;1.47;0.47;;;15.60;99.90;;;;;;1928286;74;21050;-94
2022/05/25 05:57:40;;;;;;;2.20;0.40;;;15.60;99.90;;;;;;1919821;74;21185;-90
2022/05/25 06:00:46;;;;;;;3.42;0.40;;;15.60;99.90;;;;;;1875101;77;21056;-94
2022/05/25 06:04:00;;;;;;;2.00;0.70;;;15.60;99.90;;;;;;1873853;77;21162;-95
2022/05/25 06:06:54;;;;;;;0.60;0.40;;;15.50;99.90;;;;;;1873730;77;21119;-94
2022/05/25 06:09:47;;;;;;;1.62;0.30;;;15.70;99.90;;;;;;1873126;77;21133;-93
2022/05/25 06:12:44;;;;;;;2.27;0.50;;;15.70;99.90;;;;;;1867336;76;21172;-93
2022/05/25 06:22:03;;;;;;;2.05;0.62;;;15.90;99.90;;;;;;1885296;76;21142;-93
2022/05/25 06:24:57;;;;;;;3.70;0.50;;;15.90;99.90;;;;;;1885796;76;21128;-93
2022/05/25 06:27:52;;;;;;;8.48;0.65;;;15.90;99.90;;;;;;1885358;76;21108;-94
2022/05/25 06:30:49;;;;;;;1.75;0.45;;;16.00;99.90;;;;;;1885077;76;21172;-92
2022/05/25 06:34:10;;;;;;;2.30;0.45;;;16.10;99.90;;;;;;1885133;76;21054;-94
2022/05/25 06:37:03;;;;;;;1.82;0.60;;;16.20;99.90;;;;;;1885829;76;21188;-94
2022/05/25 06:40:01;;;;;;;1.27;0.35;;;16.20;99.90;;;;;;1886701;76;21102;-92
2022/05/25 06:43:12;;;;;;;1.57;0.42;;;16.10;99.90;;;;;;1885168;76;21117;-86
2022/05/25 06:46:05;;;;;;;1.00;0.47;;;16.20;99.90;;;;;;1885504;76;21103;-87
2022/05/25 06:48:59;;;;;;;1.00;0.40;;;16.20;99.90;;;;;;1872150;77;21059;-89
2022/05/25 06:51:51;;;;;;;1.85;0.40;;;16.10;99.90;;;;;;1872395;77;21051;-89
2022/05/25 06:54:44;;;;;;;6.50;0.80;;;16.10;99.90;;;;;;1871873;77;21221;-89
2022/05/25 06:57:37;;;;;;;4.85;0.47;;;16.10;99.90;;;;;;1872321;76;21055;-89
2022/05/25 07:00:29;;;;;;;1.02;0.40;;;16.00;99.90;;;;;;1893056;76;21055;-91
2022/05/25 07:03:21;;;;;;;0.88;0.30;;;16.00;99.90;;;;;;1893352;76;21204;-90
2022/05/25 07:06:15;;;;;;;0.95;0.30;;;15.90;99.90;;;;;;1893601;76;21187;-90
2022/05/25 07:09:10;;;;;;;0.47;0.30;;;15.90;99.90;;;;;;1915008;74;21119;-91
2022/05/25 07:12:02;;;;;;;2.42;0.30;;;15.80;99.90;;;;;;1922111;74;21095;-89
2022/05/25 07:14:55;;;;;;;4.08;0.60;;;15.90;99.90;;;;;;1907093;73;21626;-89
2022/05/25 07:17:48;;;;;;;4.50;0.60;;;15.80;99.90;;;;;;1927759;73;21138;-89
2022/05/25 07:20:43;;;;;;;2.42;0.57;;;15.80;99.90;;;;;;1856439;77;21124;-89
2022/05/25 07:23:36;;;;;;;1.10;0.40;;;16.00;99.90;;;;;;1920770;74;21099;-89
2022/05/25 07:26:30;;;;;;;3.33;0.60;;;15.90;99.90;;;;;;1899977;75;21126;-90
2022/05/25 07:29:22;;;;;;;2.37;0.50;;;15.90;99.90;;;;;;1900304;74;21367;-88
2022/05/25 07:32:15;;;;;;;1.22;0.42;;;15.90;99.90;;;;;;1915974;74;21113;-88
2022/05/25 07:35:09;;;;;;;1.10;0.35;;;16.00;99.90;;;;;;1912008;74;21083;-90
2022/05/25 07:38:01;;;;;;;1.45;0.55;;;16.00;99.90;;;;;;1925405;74;21138;-90
2022/05/25 07:40:52;;;;;;;1.82;0.50;;;16.00;99.90;;;;;;1921954;74;21090;-90
2022/05/25 07:43:46;;;;;;;3.20;0.40;;;16.20;99.90;;;;;;1899892;75;21117;-89
2022/05/25 07:46:39;;;;;;;1.60;0.53;;;16.40;99.90;;;;;;1914408;74;21213;-90
2022/05/25 07:49:31;;;;;;;2.62;0.50;;;16.40;99.90;;;;;;1923744;74;21172;-90
2022/05/25 07:52:25;;;;;;;1.27;0.50;;;16.40;99.90;;;;;;1899958;74;21157;-91
2022/05/25 07:55:17;;;;;;;2.27;0.40;;;16.40;99.90;;;;;;1922276;74;21043;-89
2022/05/25 07:58:10;;;;;;;1.67;0.50;;;16.20;99.90;;;;;;1915630;74;21062;-89
2022/05/25 08:01:05;;;;;;;1.65;0.40;;;16.30;99.90;;;;;;1912295;74;21071;-89
2022/05/25 08:07:24;;;;;;;1.75;0.40;;;16.40;99.90;;;;;;1823832;77;21065;-89
2022/05/25 08:10:23;;;;;;;4.12;0.60;;;16.40;99.90;;;;;;1906718;74;21079;-90
2022/05/25 08:13:17;;;;;;;3.75;0.57;;;16.60;99.90;;;;;;1933135;74;21098;-90
2022/05/25 08:16:09;;;;;;;3.08;0.50;;;16.50;99.90;;;;;;1913416;74;21066;-89
2022/05/25 08:19:02;;;;;;;3.35;0.50;;;16.60;99.90;;;;;;1914171;74;21514;-90
2022/05/25 08:21:54;;;;;;;1.72;0.50;;;16.70;99.90;;;;;;1924400;74;21637;-90
2022/05/25 08:24:45;;;;;;;2.05;0.50;;;16.80;99.90;;;;;;1922246;74;21086;-89
2022/05/25 08:27:39;;;;;;;1.07;0.40;;;16.80;99.90;;;;;;1899970;75;21129;-89
2022/05/25 08:30:32;;;;;;;3.02;0.40;;;16.90;99.90;;;;;;1827519;77;21220;-89
2022/05/25 08:33:25;;;;;;;2.85;0.50;;;16.90;99.90;;;;;;1900432;75;21090;-90
2022/05/25 08:36:17;;;;;;;4.97;0.60;;;17.10;99.90;;;;;;1905985;74;21144;-90
2022/05/25 08:39:09;;;;;;;2.72;1.00;;;17.20;99.90;;;;;;1931944;74;21051;-89
2022/05/25 08:42:06;;;;;;;0.93;0.53;;;17.30;99.90;;;;;;1899703;74;21170;-89
2022/05/25 08:45:00;;;;;;;1.05;0.42;;;17.40;99.90;;;;;;1900093;75;21091;-89
2022/05/25 08:47:55;;;;;;;1.20;0.40;;;17.50;99.90;;;;;;1899989;74;21047;-89
2022/05/25 08:50:50;;;;;;;2.00;0.70;;;17.60;99.90;;;;;;1904378;74;21175;-88
2022/05/25 08:53:43;;;;;;;2.62;0.68;;;17.80;99.90;;;;;;1910900;74;21047;-89
2022/05/25 08:56:39;;;;;;;1.05;0.50;;;18.00;99.90;;;;;;1915259;74;21116;-90
2022/05/25 08:59:36;;;;;;;2.20;0.70;;;18.30;99.90;;;;;;1913828;74;21101;-89
2022/05/25 09:02:33;;;;;;;0.72;0.50;;;18.30;99.90;;;;;;1900859;74;21098;-89
2022/05/25 09:05:29;;;;;;;1.43;0.70;;;18.30;99.90;;;;;;1922551;74;21121;-88
2022/05/25 09:08:26;;;;;;;1.60;0.50;;;18.50;99.90;;;;;;1901618;74;21141;-90
2022/05/25 09:11:22;;;;;;;1.62;0.60;;;18.70;99.90;;;;;;1931302;74;21171;-89
2022/05/25 09:14:18;;;;;;;1.05;0.45;;;18.90;99.90;;;;;;1914910;74;21106;-90
2022/05/25 09:17:13;;;;;;;1.45;0.50;;;19.10;99.90;;;;;;1911295;74;21087;-90
2022/05/25 09:20:07;;;;;;;1.82;0.57;;;19.20;99.90;;;;;;1910514;74;21106;-88
2022/05/25 09:23:00;;;;;;;2.00;0.65;;;19.20;99.90;;;;;;1931261;74;21051;-89
2022/05/25 09:25:55;;;;;;;3.20;0.60;;;19.30;99.90;;;;;;1899725;75;21149;-89
2022/05/25 09:28:49;;;;;;;1.72;0.60;;;19.40;99.90;;;;;;1914422;74;21058;-89
2022/05/25 09:31:47;;;;;;;1.05;0.53;;;19.40;99.90;;;;;;1899999;74;21123;-90
2022/05/25 09:34:42;;;;;;;2.10;0.65;;;19.30;99.90;;;;;;1922298;74;21054;-89
2022/05/25 09:37:38;;;;;;;1.17;0.40;;;19.30;99.90;;;;;;1923837;74;21194;-90
2022/05/25 09:43:36;;;;;;;4.72;0.62;;;19.70;99.90;;;;;;1977656;72;22156;-89
2022/05/25 09:46:53;;;;;;;7.83;0.72;;;19.70;99.90;;;;;;1922035;73;21130;-88
2022/05/25 09:50:04;;;;;;;1.80;0.80;;;19.60;99.90;;;;;;1917764;75;21577;-91
2022/05/25 09:52:57;;;;;;;2.37;0.57;;;19.70;99.90;;;;;;1917546;75;21079;-90
2022/05/25 09:56:12;;;;;;;1.47;0.50;;;19.80;99.90;;;;;;1905165;75;21135;-90
2022/05/25 09:59:07;;;;;;;2.02;0.70;;;19.90;99.90;;;;;;1905279;75;21459;-89
2022/05/25 10:02:00;;;;;;;1.75;0.60;;;20.00;99.90;;;;;;1904940;75;21074;-89
2022/05/25 10:04:55;;;;;;;1.40;0.40;;;20.10;99.90;;;;;;1905160;75;21062;-89
2022/05/25 10:07:56;;;;;;;2.90;0.80;;;20.20;99.90;;;;;;1917497;75;21105;-91
2022/05/25 10:10:52;;;;;;;1.25;0.50;;;20.40;99.90;;;;;;1905191;75;21185;-88
2022/05/25 10:13:45;;;;;;;1.32;0.40;;;20.10;99.90;;;;;;1905171;75;21039;-88
2022/05/25 10:16:36;;;;;;;1.20;0.50;;;20.20;99.90;;;;;;1905245;75;21102;-88
2022/05/25 10:19:27;;;;;;;2.55;0.53;;;20.40;99.90;;;;;;1917806;75;21109;-89
2022/05/25 10:22:32;;;;;;;2.00;0.40;;;20.60;99.90;;;;;;1917560;75;21114;-88
2022/05/25 10:25:28;;;;;;;1.37;0.45;;;20.90;99.90;;;;;;1917529;75;21059;-89
2022/05/25 10:28:26;;;;;;;2.50;0.60;;;21.10;99.90;;;;;;1917572;75;21043;-88
2022/05/25 10:37:45;;;;;;;1.25;0.60;;;21.20;99.90;;;;;;1925240;73;21072;-89
2022/05/25 10:40:37;;;;;;;2.33;0.50;;;21.00;99.90;;;;;;1917558;75;21183;-88
2022/05/25 10:43:32;;;;;;;1.37;0.30;;;21.00;99.90;;;;;;1913688;74;21532;-90
2022/05/25 10:46:24;;;;;;;1.17;0.50;;;21.00;99.90;;;;;;1917117;75;21556;-89
2022/05/25 10:49:21;;;;;;;3.22;0.60;;;21.00;99.90;;;;;;1917494;75;21083;-90
2022/05/25 10:52:18;;;;;;;1.67;0.47;;;21.00;99.90;;;;;;1917664;75;21649;-89
2022/05/25 10:55:10;;;;;;;1.35;0.50;;;21.00;99.90;;;;;;1916753;75;21054;-89
2022/05/25 10:58:33;;;;;;;2.05;0.42;;;20.90;99.90;;;;;;1917053;75;21105;-89
2022/05/25 11:01:52;;;;;;;1.85;0.57;;;21.00;99.90;;;;;;1917186;75;21080;-90
2022/05/25 11:05:04;;;;;;;0.88;0.40;;;21.10;99.90;;;;;;1904010;75;21128;-89
2022/05/25 11:07:59;;;;;;;1.25;0.53;;;21.20;99.90;;;;;;1895784;75;21059;-89
2022/05/25 11:10:54;;;;;;;1.15;0.50;;;21.20;99.90;;;;;;1898937;75;21096;-91
2022/05/25 11:13:55;;;;;;;2.60;0.40;;;21.30;99.90;;;;;;1915512;75;21047;-90
2022/05/25 11:16:55;;;;;;;1.17;0.33;;;21.50;99.90;;;;;;1917133;75;21156;-89
2022/05/25 11:19:56;;;;;;;1.98;0.50;;;21.60;99.90;;;;;;1914896;75;21136;-88
2022/05/25 11:23:07;;;;;;;1.90;0.33;;;21.60;99.90;;;;;;1898681;74;21060;-89
2022/05/25 11:26:35;;;;;;;1.85;0.40;;;21.40;99.90;;;;;;1931307;74;21145;-88
2022/05/25 11:29:53;;;;;;;1.10;0.50;;;21.60;99.90;;;;;;1909109;75;21129;-87
2022/05/25 11:32:48;;;;;;;;;;;21.90;99.90;;;;;;1938812;74;21109;-88
2022/05/25 11:35:48;;;;;;;1.22;0.30;;;22.20;99.90;;;;;;1911240;75;20152;-89
2022/05/25 11:39:00;;;;;;;1.02;0.50;;;22.10;99.90;;;;;;1910591;75;21561;-88
2022/05/25 11:41:55;;;;;;;2.08;0.47;;;22.10;99.90;;;;;;1911296;75;21110;-88
2022/05/25 11:44:57;;;;;;;3.37;0.40;;;22.00;99.90;;;;;;1912454;75;21063;-88
2022/05/25 11:48:00;;;;;;;3.87;0.42;;;22.10;99.90;;;;;;1912731;75;21525;-87
2022/05/25 11:50:56;;;;;;;0.85;0.40;;;22.20;99.90;;;;;;1912688;75;21314;-87
2022/05/25 11:53:56;;;;;;;1.62;0.40;;;22.30;99.90;;;;;;1912897;75;21099;-88
2022/05/25 11:57:00;;;;;;;1.65;0.30;;;22.00;99.90;;;;;;1913159;75;21181;-88
2022/05/25 12:03:19;;;;;;;2.33;0.42;;;22.20;99.90;;;;;;1957947;72;22212;-87
2022/05/25 12:07:01;;;;;;;2.92;0.40;;;22.10;99.90;;;;;;1902554;75;21095;-88
2022/05/25 12:10:27;;;;;;;2.37;0.50;;;22.10;99.90;;;;;;1895647;75;21187;-87
2022/05/25 12:13:22;;;;;;;1.72;0.53;;;22.20;99.90;;;;;;1913092;75;21166;-89
2022/05/25 12:16:36;;;;;;;4.50;0.42;;;22.20;99.90;;;;;;1910682;75;21110;-87
2022/05/25 12:19:31;;;;;;;1.65;0.50;;;22.20;99.90;;;;;;1917210;75;21047;-88
2022/05/25 12:22:25;;;;;;;0.80;0.33;;;22.20;99.90;;;;;;1901678;75;21097;-88
2022/05/25 12:25:18;;;;;;;1.92;0.42;;;22.00;99.90;;;;;;1906554;75;21122;-88
2022/05/25 12:28:11;;;;;;;0.75;0.40;;;22.00;99.90;;;;;;1884623;75;21617;-87
2022/05/25 12:31:06;;;;;;;2.25;0.53;;;21.90;99.90;;;;;;1907909;75;21553;-88
2022/05/25 12:33:59;;;;;;;0.68;0.30;;;21.90;99.90;;;;;;1917219;75;21063;-89
2022/05/25 12:36:52;;;;;;;2.55;0.55;;;22.00;99.90;;;;;;1898099;75;21106;-87
2022/05/25 12:39:57;;;;;;;1.60;0.37;;;21.90;99.90;;;;;;1895448;75;21168;-87
2022/05/25 12:42:49;;;;;;;4.00;0.45;;;22.00;99.90;;;;;;1895571;75;21150;-86
2022/05/25 12:49:11;;;;;;;2.27;0.40;;;22.20;99.90;;;;;;1888883;75;21055;-87
2022/05/25 12:52:03;;;;;;;1.72;0.50;;;22.40;99.90;;;;;;1895794;75;21059;-88
2022/05/25 12:54:57;;;;;;;2.75;0.50;;;22.50;99.90;;;;;;1901064;75;21055;-87
2022/05/25 12:57:51;;;;;;;0.98;0.40;;;22.50;99.90;;;;;;1905686;75;21133;-87
2022/05/25 13:00:47;;;;;;;0.40;0.30;;;22.60;99.90;;;;;;1906561;75;21185;-88
2022/05/25 13:03:45;;;;;;;0.78;0.50;;;22.90;99.90;;;;;;1888786;75;21101;-89
2022/05/25 13:07:28;;;;;;;3.87;0.98;;;22.90;99.90;;;;;;1888311;76;21179;-90
2022/05/25 13:10:48;;;;;;;1.30;0.30;;;22.90;99.90;;;;;;1910062;75;21069;-87
2022/05/25 13:13:43;;;;;;;1.75;0.50;;;23.10;99.90;;;;;;1909852;75;21121;-90
2022/05/25 13:16:57;;;;;;;1.72;0.68;;;23.20;99.90;;;;;;1891163;75;21102;-88
2022/05/25 13:19:49;;;;;;;0.78;0.40;;;23.30;99.90;;;;;;1898435;75;21086;-90
2022/05/25 13:22:41;;;;;;;1.65;0.55;;;23.20;99.90;;;;;;1899892;75;21102;-88
2022/05/25 13:25:36;;;;;;;2.15;0.30;;;23.00;99.90;;;;;;1887897;76;21139;-89
2022/05/25 13:31:19;;;;;;;1.07;0.30;;;23.10;99.90;;;;;;1949824;72;22119;-91
2022/05/25 13:34:32;;;;;;;2.10;0.47;;;23.10;99.90;;;;;;1917537;75;21208;-87
2022/05/25 13:37:42;;;;;;;0.70;0.40;;;22.90;99.90;;;;;;1921419;73;21106;-90
2022/05/25 13:40:39;;;;;;;0.60;0.37;;;22.80;99.90;;;;;;1951169;73;21084;-89
2022/05/25 13:43:57;;;;;;;1.75;0.30;;;22.80;99.90;;;;;;1917834;75;21160;-88
2022/05/25 13:46:53;;;;;;;1.62;0.40;;;22.70;99.90;;;;;;1917793;75;21103;-89
2022/05/25 13:49:49;;;;;;;2.50;0.50;;;22.80;99.90;;;;;;1917391;75;21054;-87
2022/05/25 13:52:46;;;;;;;2.35;0.50;;;22.80;99.90;;;;;;1917721;75;21087;-89
2022/05/25 13:55:40;;;;;;;1.33;0.20;;;23.20;99.90;;;;;;1917861;75;21229;-88
2022/05/25 13:58:33;;;;;;;1.05;0.30;;;23.10;99.90;;;;;;1917691;75;21539;-89
2022/05/25 14:01:26;;;;;;;1.87;0.50;;;23.10;99.90;;;;;;1917872;75;21145;-89
2022/05/25 14:04:27;;;;;;;2.55;0.40;;;23.10;99.90;;;;;;1929680;73;21054;-89
2022/05/25 14:07:33;;;;;;;3.35;0.57;;;23.60;99.90;;;;;;1919081;73;21047;-88
2022/05/25 14:13:40;;;;;;;1.25;0.47;;;24.30;99.90;;;;;;1917853;75;21208;-88
2022/05/25 14:16:33;;;;;;;1.40;0.62;;;24.50;99.90;;;;;;1917564;75;21139;-89
2022/05/25 14:19:29;;;;;;;0.85;0.30;;;24.50;99.90;;;;;;1917433;75;21088;-88
2022/05/25 14:22:24;;;;;;;0.60;0.30;;;24.50;99.90;;;;;;1881884;76;21245;-86
2022/05/25 14:25:21;;;;;;;0.60;0.30;;;24.50;99.90;;;;;;1917402;74;21111;-87
2022/05/25 14:28:14;;;;;;;0.60;0.45;;;25.00;99.90;;;;;;1906792;75;21068;-88
2022/05/25 14:31:07;;;;;;;0.90;0.30;;;25.00;99.90;;;;;;1878019;74;21510;-87
2022/05/25 14:37:00;;;;;;;1.45;0.40;;;25.30;99.90;;;;;;1976189;72;22165;-87
2022/05/25 14:40:13;;;;;;;1.45;0.50;;;25.10;99.90;;;;;;1924399;73;21074;-87
2022/05/25 14:43:41;;;;;;;0.88;0.37;;;25.40;99.90;;;;;;1905137;75;21098;-86
2022/05/25 14:46:39;;;;;;;1.30;0.30;;;25.30;99.90;;;;;;1905260;75;21166;-88
2022/05/25 14:49:55;;;;;;;1.42;0.70;;;25.70;99.90;;;;;;1905358;75;21040;-87
2022/05/25 14:52:54;;;;;;;0.50;0.30;;;25.50;99.90;;;;;;1905191;75;21122;-86
2022/05/25 14:55:55;;;;;;;0.85;0.33;;;24.70;99.90;;;;;;1904869;75;21157;-86
2022/05/25 14:58:51;;;;;;;2.05;0.50;;;24.60;99.90;;;;;;1905141;75;21122;-89
2022/05/25 15:01:44;;;;;;;1.02;0.40;;;24.70;99.90;;;;;;1905207;75;21063;-89
2022/05/25 15:04:39;;;;;;;0.88;0.35;;;24.70;99.90;;;;;;1905043;75;21056;-88
2022/05/25 15:07:31;;;;;;;2.83;0.40;;;24.60;99.90;;;;;;1905086;75;21126;-87
2022/05/25 15:10:26;;;;;;;2.08;0.40;;;23.90;99.90;;;;;;1925330;74;21121;-86
2022/05/25 15:18:29;;;;;;;2.00;0.50;;;23.70;99.90;;;;;;1904838;75;21112;-87
2022/05/25 15:19:34;;;;;;;1.30;0.55;;;23.80;99.90;;;;;;1904735;75;21095;-87
2022/05/25 15:22:29;;;;;;;1.20;0.60;;;25.20;99.90;;;;;;1904998;75;21572;-86
2022/05/25 15:25:32;;;;;;;1.60;0.47;;;25.60;99.90;;;;;;1905162;75;21071;-86
2022/05/25 15:28:33;;;;;;;0.90;0.40;;;26.50;99.80;;;;;;1904942;75;21096;-88
2022/05/25 15:34:10;;;;;;;0.98;0.50;;;25.50;99.90;;;;;;1953653;72;22333;-89
2022/05/25 15:37:22;;;;;;;0.37;0.30;;;24.80;99.90;;;;;;1904761;75;21077;-87
2022/05/25 15:40:36;;;;;;;1.07;0.40;;;24.10;99.90;;;;;;1917534;75;21024;-86
2022/05/25 15:43:28;;;;;;;1.37;0.42;;;23.90;99.90;;;;;;1902334;75;21117;-87
2022/05/25 15:46:42;;;;;;;1.60;0.42;;;23.90;99.90;;;;;;1898985;75;21297;-87
2022/05/25 15:49:34;;;;;;;1.37;0.50;;;23.70;99.90;;;;;;1895078;75;21207;-90
2022/05/25 15:52:26;;;;;;;2.75;0.53;;;23.80;99.90;;;;;;1895011;75;21091;-87
2022/05/25 15:55:20;;;;;;;1.52;0.35;;;23.90;99.90;;;;;;1895227;75;21195;-87
2022/05/25 15:58:15;;;;;;;1.65;0.40;;;23.70;99.90;;;;;;1901990;75;21120;-88
2022/05/25 16:01:10;;;;;;;1.05;0.50;;;23.70;99.90;;;;;;1897868;75;21039;-88
2022/05/25 16:04:06;;;;;;;0.85;0.47;;;23.90;99.90;;;;;;1895169;75;21131;-87
2022/05/25 16:06:59;;;;;;;0.93;0.62;;;24.80;99.90;;;;;;1895603;75;21478;-87
2022/05/25 16:09:50;;;;;;;1.80;0.40;;;25.70;99.90;;;;;;1895924;75;21102;-88
2022/05/25 16:12:43;;;;;;;1.02;0.40;;;26.50;99.90;;;;;;1884298;76;21142;-88
2022/05/25 16:15:35;;;;;;;2.12;0.55;;;27.40;98.30;;;;;;1896043;75;21650;-87
2022/05/25 16:18:27;;;;;;;1.40;0.40;;;27.20;98.10;;;;;;1911303;75;21121;-87
2022/05/25 16:21:18;;;;;;;0.78;0.40;;;25.90;99.20;;;;;;1906397;75;21118;-86
2022/05/25 16:24:21;;;;;;;1.12;0.57;;;24.90;99.90;;;;;;1902489;75;21102;-88
2022/05/25 16:27:39;;;;;;;3.35;0.60;;;24.80;99.90;;;;;;1898677;75;21688;-88
2022/05/25 16:30:59;;;;;;;4.58;0.90;;;26.00;99.40;;;;;;1906984;75;21572;-90
2022/05/25 16:34:30;;;;;;;0.50;0.40;;;25.20;99.90;;;;;;1906693;75;21587;-89